WCC68 KSGR-KNEW
Flight info
| Callsign | WCC68 |
|---|---|
| Flight time | 0h 49m |
| Altitude | 33000 |
| Route | MMALT7 LLA AWDAD AWDAD1 |
| Aircraft | C680/M-SDFGHRWY/SB1 |
Departure
| Time | 2026-05-08 00:25 |
|---|---|
| Airport | Sugar Land Regional Airport (KSGR) |
Arrival
| Time | 2026-05-08 01:14 |
|---|---|
| Airport | Lakefront Airport (KNEW) |
| Time | Latitude | Longitude | Altitude | Speed | Heading |
|---|---|---|---|---|---|
| 2026-05-08 00:11 | 29.62955 | -95.65402 | 84 ft | 0 kts | 174° |
| 2026-05-08 00:19 | 29.62954 | -95.65403 | 84 ft | 2 kts | 184° |
| 2026-05-08 00:20 | 29.62958 | -95.65418 | 84 ft | 6 kts | 321° |
| 2026-05-08 00:20 | 29.62986 | -95.65481 | 84 ft | 12 kts | 264° |
| 2026-05-08 00:20 | 29.62980 | -95.65597 | 87 ft | 15 kts | 268° |
| 2026-05-08 00:20 | 29.62932 | -95.65660 | 85 ft | 16 kts | 176° |
| 2026-05-08 00:21 | 29.62790 | -95.65647 | 79 ft | 24 kts | 175° |
| 2026-05-08 00:21 | 29.62607 | -95.65630 | 82 ft | 28 kts | 175° |
| 2026-05-08 00:21 | 29.62407 | -95.65611 | 82 ft | 24 kts | 175° |
| 2026-05-08 00:21 | 29.62230 | -95.65594 | 85 ft | 27 kts | 175° |
| 2026-05-08 00:22 | 29.62049 | -95.65576 | 84 ft | 24 kts | 175° |
| 2026-05-08 00:22 | 29.61867 | -95.65559 | 83 ft | 29 kts | 175° |
| 2026-05-08 00:22 | 29.61685 | -95.65542 | 84 ft | 21 kts | 174° |
| 2026-05-08 00:22 | 29.61514 | -95.65526 | 80 ft | 28 kts | 175° |
| 2026-05-08 00:23 | 29.61335 | -95.65509 | 81 ft | 27 kts | 175° |
| 2026-05-08 00:23 | 29.61191 | -95.65497 | 78 ft | 3 kts | 184° |
| 2026-05-08 00:23 | 29.61190 | -95.65497 | 78 ft | 0 kts | 184° |
| 2026-05-08 00:23 | 29.61169 | -95.65518 | 75 ft | 10 kts | 244° |
| 2026-05-08 00:24 | 29.61190 | -95.65557 | 69 ft | 0 kts | 356° |
| 2026-05-08 00:24 | 29.61191 | -95.65557 | 69 ft | 1 kts | 356° |
| 2026-05-08 00:24 | 29.61227 | -95.65560 | 78 ft | 14 kts | 355° |
| 2026-05-08 00:25 | 29.61571 | -95.65593 | 82 ft | 97 kts | 355° |
| 2026-05-08 00:25 | 29.62476 | -95.65672 | 501 ft | 160 kts | 357° |
| 2026-05-08 00:25 | 29.63731 | -95.65833 | 1549 ft | 191 kts | 353° |
| 2026-05-08 00:25 | 29.65095 | -95.66136 | 2809 ft | 219 kts | 352° |
| 2026-05-08 00:26 | 29.66788 | -95.66508 | 2995 ft | 265 kts | 352° |
| 2026-05-08 00:26 | 29.68585 | -95.66891 | 3001 ft | 261 kts | 352° |
| 2026-05-08 00:26 | 29.70401 | -95.67281 | 2991 ft | 269 kts | 351° |
| 2026-05-08 00:26 | 29.72249 | -95.67659 | 2992 ft | 270 kts | 352° |
| 2026-05-08 00:27 | 29.74106 | -95.68016 | 2980 ft | 270 kts | 355° |
| 2026-05-08 00:27 | 29.75928 | -95.67607 | 3697 ft | 265 kts | 31° |
| 2026-05-08 00:27 | 29.77212 | -95.66131 | 5343 ft | 267 kts | 59° |
| 2026-05-08 00:27 | 29.77738 | -95.64083 | 6861 ft | 272 kts | 84° |
| 2026-05-08 00:28 | 29.77739 | -95.61869 | 8240 ft | 282 kts | 95° |
| 2026-05-08 00:28 | 29.77547 | -95.59593 | 9620 ft | 291 kts | 97° |
| 2026-05-08 00:28 | 29.77400 | -95.57234 | 10873 ft | 300 kts | 94° |
| 2026-05-08 00:28 | 29.77337 | -95.54788 | 12062 ft | 311 kts | 93° |
| 2026-05-08 00:29 | 29.77269 | -95.52249 | 13232 ft | 323 kts | 94° |
| 2026-05-08 00:29 | 29.77156 | -95.49625 | 14319 ft | 334 kts | 96° |
| 2026-05-08 00:29 | 29.77033 | -95.46919 | 15352 ft | 344 kts | 96° |
| 2026-05-08 00:29 | 29.76923 | -95.44131 | 16365 ft | 354 kts | 96° |
| 2026-05-08 00:30 | 29.76817 | -95.41287 | 17342 ft | 365 kts | 96° |
| 2026-05-08 00:30 | 29.76699 | -95.38335 | 18323 ft | 374 kts | 97° |
| 2026-05-08 00:30 | 29.76572 | -95.35310 | 19200 ft | 381 kts | 96° |
| 2026-05-08 00:30 | 29.76447 | -95.32239 | 20088 ft | 388 kts | 96° |
| 2026-05-08 00:31 | 29.76320 | -95.29106 | 20919 ft | 395 kts | 96° |
| 2026-05-08 00:31 | 29.76191 | -95.25925 | 21808 ft | 400 kts | 96° |
| 2026-05-08 00:31 | 29.76056 | -95.22708 | 22654 ft | 406 kts | 96° |
| 2026-05-08 00:31 | 29.75919 | -95.19438 | 23493 ft | 412 kts | 96° |
| 2026-05-08 00:32 | 29.75780 | -95.16120 | 24172 ft | 418 kts | 96° |
| 2026-05-08 00:32 | 29.75640 | -95.12760 | 24840 ft | 423 kts | 96° |
| 2026-05-08 00:32 | 29.75495 | -95.09352 | 25481 ft | 429 kts | 96° |
| 2026-05-08 00:32 | 29.75347 | -95.05903 | 26105 ft | 434 kts | 96° |
| 2026-05-08 00:33 | 29.75197 | -95.02414 | 26705 ft | 439 kts | 96° |
| 2026-05-08 00:33 | 29.75044 | -94.98880 | 27294 ft | 444 kts | 96° |
| 2026-05-08 00:33 | 29.74889 | -94.95312 | 27842 ft | 449 kts | 96° |
| 2026-05-08 00:33 | 29.74731 | -94.91705 | 28412 ft | 453 kts | 96° |
| 2026-05-08 00:34 | 29.74573 | -94.88089 | 29128 ft | 453 kts | 96° |
| 2026-05-08 00:34 | 29.74413 | -94.84469 | 29816 ft | 453 kts | 96° |
| 2026-05-08 00:34 | 29.74250 | -94.80850 | 30427 ft | 453 kts | 96° |
| 2026-05-08 00:34 | 29.74088 | -94.77226 | 30980 ft | 453 kts | 97° |
| 2026-05-08 00:35 | 29.73926 | -94.73614 | 31612 ft | 451 kts | 97° |
| 2026-05-08 00:35 | 29.73762 | -94.70014 | 32183 ft | 451 kts | 97° |
| 2026-05-08 00:35 | 29.73599 | -94.66463 | 32735 ft | 450 kts | 97° |
| 2026-05-08 00:35 | 29.73431 | -94.62846 | 32983 ft | 459 kts | 97° |
| 2026-05-08 00:36 | 29.73255 | -94.59109 | 32989 ft | 474 kts | 97° |
| 2026-05-08 00:36 | 29.73077 | -94.55274 | 32986 ft | 487 kts | 97° |
| 2026-05-08 00:36 | 29.72896 | -94.51338 | 32989 ft | 499 kts | 96° |
| 2026-05-08 00:36 | 29.72706 | -94.47306 | 32991 ft | 509 kts | 96° |
| 2026-05-08 00:37 | 29.72310 | -94.39018 | 32990 ft | 528 kts | 96° |
| 2026-05-08 00:38 | 29.71189 | -94.26245 | 32990 ft | 537 kts | 101° |
| 2026-05-08 00:38 | 29.70244 | -94.17739 | 32988 ft | 535 kts | 101° |
| 2026-05-08 00:39 | 29.69300 | -94.09331 | 32991 ft | 529 kts | 101° |
| 2026-05-08 00:39 | 29.68632 | -94.00842 | 32991 ft | 537 kts | 93° |
| 2026-05-08 00:40 | 29.68593 | -93.92254 | 32997 ft | 537 kts | 94° |
| 2026-05-08 00:40 | 29.68488 | -93.83722 | 32997 ft | 537 kts | 93° |
| 2026-05-08 00:41 | 29.68425 | -93.75157 | 33006 ft | 534 kts | 93° |
| 2026-05-08 00:41 | 29.68322 | -93.66613 | 33006 ft | 535 kts | 93° |
| 2026-05-08 00:42 | 29.68238 | -93.58052 | 33006 ft | 535 kts | 93° |
| 2026-05-08 00:42 | 29.68132 | -93.49488 | 33016 ft | 536 kts | 94° |
| 2026-05-08 00:43 | 29.68031 | -93.40914 | 33014 ft | 536 kts | 94° |
| 2026-05-08 00:43 | 29.67918 | -93.32338 | 33017 ft | 537 kts | 94° |
| 2026-05-08 00:44 | 29.67803 | -93.23753 | 33019 ft | 537 kts | 94° |
| 2026-05-08 00:44 | 29.67680 | -93.15168 | 33017 ft | 537 kts | 94° |
| 2026-05-08 00:45 | 29.67553 | -93.06577 | 33011 ft | 537 kts | 94° |
| 2026-05-08 00:45 | 29.67442 | -92.99419 | 33009 ft | 541 kts | 94° |
| 2026-05-08 00:46 | 29.67306 | -92.90808 | 33011 ft | 539 kts | 94° |
| 2026-05-08 00:46 | 29.67161 | -92.82195 | 33005 ft | 537 kts | 94° |
| 2026-05-08 00:47 | 29.67011 | -92.73575 | 33003 ft | 538 kts | 94° |
| 2026-05-08 00:47 | 29.66857 | -92.64968 | 33002 ft | 539 kts | 94° |
| 2026-05-08 00:48 | 29.66695 | -92.56315 | 33000 ft | 541 kts | 94° |
| 2026-05-08 00:48 | 29.66530 | -92.47682 | 32999 ft | 539 kts | 94° |
| 2026-05-08 00:49 | 29.66601 | -92.39066 | 32995 ft | 543 kts | 85° |
| 2026-05-08 00:49 | 29.68480 | -92.30690 | 32999 ft | 546 kts | 69° |
| 2026-05-08 00:50 | 29.71160 | -92.22524 | 32998 ft | 548 kts | 69° |
| 2026-05-08 00:50 | 29.73794 | -92.14323 | 32999 ft | 546 kts | 69° |
| 2026-05-08 00:50 | 29.75129 | -92.10214 | 32714 ft | 551 kts | 69° |
| 2026-05-08 00:51 | 29.76443 | -92.06168 | 32223 ft | 527 kts | 69° |
| 2026-05-08 00:51 | 29.77717 | -92.02211 | 30061 ft | 537 kts | 69° |
| 2026-05-08 00:51 | 29.79007 | -91.98187 | 29101 ft | 520 kts | 69° |
| 2026-05-08 00:51 | 29.80242 | -91.94340 | 28472 ft | 509 kts | 69° |
| 2026-05-08 00:52 | 29.81489 | -91.90481 | 27825 ft | 521 kts | 69° |
| 2026-05-08 00:52 | 29.82751 | -91.86554 | 27110 ft | 522 kts | 69° |
| 2026-05-08 00:52 | 29.83994 | -91.82665 | 26427 ft | 514 kts | 69° |
| 2026-05-08 00:52 | 29.85219 | -91.78833 | 25755 ft | 507 kts | 69° |
| 2026-05-08 00:53 | 29.86436 | -91.75037 | 25091 ft | 502 kts | 69° |
| 2026-05-08 00:53 | 29.87638 | -91.71281 | 24434 ft | 497 kts | 69° |
| 2026-05-08 00:53 | 29.88821 | -91.67568 | 23785 ft | 490 kts | 69° |
| 2026-05-08 00:53 | 29.89973 | -91.63948 | 23101 ft | 483 kts | 69° |
| 2026-05-08 00:54 | 29.91126 | -91.60333 | 22462 ft | 481 kts | 69° |
| 2026-05-08 00:54 | 29.92276 | -91.56722 | 21830 ft | 477 kts | 69° |
| 2026-05-08 00:54 | 29.93409 | -91.53154 | 21208 ft | 472 kts | 69° |
| 2026-05-08 00:54 | 29.94537 | -91.49599 | 20590 ft | 471 kts | 69° |
| 2026-05-08 00:55 | 29.95655 | -91.46074 | 19977 ft | 465 kts | 69° |
| 2026-05-08 00:55 | 29.96762 | -91.42581 | 19365 ft | 463 kts | 69° |
| 2026-05-08 00:55 | 29.97864 | -91.39098 | 18757 ft | 460 kts | 69° |
| 2026-05-08 00:55 | 29.98953 | -91.35650 | 18133 ft | 455 kts | 69° |
| 2026-05-08 00:56 | 30.00028 | -91.32246 | 17514 ft | 447 kts | 69° |
| 2026-05-08 00:56 | 30.01083 | -91.28904 | 16928 ft | 440 kts | 70° |
| 2026-05-08 00:56 | 30.02123 | -91.25604 | 16348 ft | 435 kts | 70° |
| 2026-05-08 00:56 | 30.03145 | -91.22357 | 15775 ft | 427 kts | 70° |
| 2026-05-08 00:57 | 30.04151 | -91.19159 | 15215 ft | 421 kts | 70° |
| 2026-05-08 00:57 | 30.05140 | -91.16010 | 14659 ft | 411 kts | 70° |
| 2026-05-08 00:57 | 30.06091 | -91.12980 | 14134 ft | 392 kts | 70° |
| 2026-05-08 00:57 | 30.06994 | -91.10099 | 13619 ft | 372 kts | 70° |
| 2026-05-08 00:58 | 30.07850 | -91.07366 | 13122 ft | 352 kts | 70° |
| 2026-05-08 00:58 | 30.08664 | -91.04764 | 12665 ft | 337 kts | 70° |
| 2026-05-08 00:58 | 30.09076 | -91.02184 | 12216 ft | 327 kts | 91° |
| 2026-05-08 00:58 | 30.08735 | -90.99592 | 11805 ft | 322 kts | 105° |
| 2026-05-08 00:59 | 30.08154 | -90.97105 | 11420 ft | 321 kts | 108° |
| 2026-05-08 00:59 | 30.07514 | -90.94639 | 11047 ft | 320 kts | 109° |
| 2026-05-08 00:59 | 30.06873 | -90.92237 | 11013 ft | 308 kts | 109° |
| 2026-05-08 00:59 | 30.06232 | -90.89848 | 11012 ft | 317 kts | 109° |
| 2026-05-08 01:00 | 30.05574 | -90.87406 | 11003 ft | 318 kts | 109° |
| 2026-05-08 01:00 | 30.04921 | -90.84972 | 11011 ft | 319 kts | 109° |
| 2026-05-08 01:00 | 30.04273 | -90.82554 | 11011 ft | 318 kts | 109° |
| 2026-05-08 01:00 | 30.03611 | -90.80084 | 11008 ft | 320 kts | 109° |
| 2026-05-08 01:01 | 30.02955 | -90.77632 | 11007 ft | 318 kts | 109° |
| 2026-05-08 01:01 | 30.02302 | -90.75192 | 11011 ft | 322 kts | 109° |
| 2026-05-08 01:01 | 30.01647 | -90.72742 | 11005 ft | 323 kts | 109° |
| 2026-05-08 01:01 | 30.00985 | -90.70253 | 11007 ft | 321 kts | 109° |
| 2026-05-08 01:02 | 30.00333 | -90.67806 | 11007 ft | 323 kts | 109° |
| 2026-05-08 01:02 | 29.99678 | -90.65343 | 11002 ft | 320 kts | 109° |
| 2026-05-08 01:02 | 29.99022 | -90.62873 | 10847 ft | 328 kts | 109° |
| 2026-05-08 01:02 | 29.98240 | -90.60404 | 10498 ft | 322 kts | 115° |
| 2026-05-08 01:03 | 29.97314 | -90.58124 | 10304 ft | 310 kts | 117° |
| 2026-05-08 01:03 | 29.96426 | -90.55853 | 10011 ft | 312 kts | 114° |
| 2026-05-08 01:03 | 29.95625 | -90.53535 | 9679 ft | 310 kts | 112° |
| 2026-05-08 01:03 | 29.94842 | -90.51235 | 9346 ft | 306 kts | 113° |
| 2026-05-08 01:04 | 29.94026 | -90.48975 | 9028 ft | 305 kts | 114° |
| 2026-05-08 01:04 | 29.93202 | -90.46732 | 8706 ft | 303 kts | 114° |
| 2026-05-08 01:04 | 29.92396 | -90.44490 | 8386 ft | 302 kts | 113° |
| 2026-05-08 01:04 | 29.91601 | -90.42257 | 8069 ft | 300 kts | 113° |
| 2026-05-08 01:05 | 29.90804 | -90.40037 | 7754 ft | 299 kts | 113° |
| 2026-05-08 01:05 | 29.90006 | -90.37829 | 7438 ft | 297 kts | 113° |
| 2026-05-08 01:05 | 29.89215 | -90.35635 | 7127 ft | 296 kts | 113° |
| 2026-05-08 01:05 | 29.88432 | -90.33455 | 6814 ft | 294 kts | 113° |
| 2026-05-08 01:06 | 29.87649 | -90.31281 | 6506 ft | 292 kts | 112° |
| 2026-05-08 01:06 | 29.86872 | -90.29129 | 6187 ft | 289 kts | 112° |
| 2026-05-08 01:06 | 29.86112 | -90.27023 | 5885 ft | 288 kts | 112° |
| 2026-05-08 01:06 | 29.85347 | -90.24905 | 5580 ft | 287 kts | 112° |
| 2026-05-08 01:07 | 29.84580 | -90.22782 | 5270 ft | 286 kts | 112° |
| 2026-05-08 01:07 | 29.83818 | -90.20677 | 4986 ft | 285 kts | 112° |
| 2026-05-08 01:07 | 29.83059 | -90.18579 | 4684 ft | 283 kts | 112° |
| 2026-05-08 01:07 | 29.82378 | -90.16467 | 4361 ft | 278 kts | 104° |
| 2026-05-08 01:08 | 29.82177 | -90.14289 | 4070 ft | 273 kts | 89° |
| 2026-05-08 01:08 | 29.82465 | -90.12141 | 3786 ft | 271 kts | 74° |
| 2026-05-08 01:08 | 29.83021 | -90.10080 | 3510 ft | 268 kts | 72° |
| 2026-05-08 01:08 | 29.83562 | -90.08052 | 3225 ft | 262 kts | 73° |
| 2026-05-08 01:09 | 29.84309 | -90.06168 | 3010 ft | 255 kts | 57° |
| 2026-05-08 01:09 | 29.85444 | -90.04635 | 2872 ft | 254 kts | 43° |
| 2026-05-08 01:09 | 29.86907 | -90.03502 | 2665 ft | 250 kts | 27° |
| 2026-05-08 01:09 | 29.88503 | -90.02882 | 2448 ft | 232 kts | 13° |
| 2026-05-08 01:10 | 29.90046 | -90.02748 | 2243 ft | 216 kts | 0° |
| 2026-05-08 01:10 | 29.91497 | -90.02798 | 2043 ft | 196 kts | 0° |
| 2026-05-08 01:10 | 29.92750 | -90.02818 | 2011 ft | 169 kts | 1° |
| 2026-05-08 01:10 | 29.93954 | -90.02826 | 1871 ft | 173 kts | 1° |
| 2026-05-08 01:11 | 29.95105 | -90.02842 | 1650 ft | 158 kts | 1° |
| 2026-05-08 01:11 | 29.96145 | -90.02860 | 1448 ft | 139 kts | 2° |
| 2026-05-08 01:11 | 29.97025 | -90.02873 | 1281 ft | 115 kts | 2° |
| 2026-05-08 01:11 | 29.97774 | -90.02884 | 1137 ft | 104 kts | 2° |
| 2026-05-08 01:12 | 29.98475 | -90.02894 | 1004 ft | 101 kts | 2° |
| 2026-05-08 01:12 | 29.99187 | -90.02903 | 883 ft | 103 kts | 3° |
| 2026-05-08 01:12 | 29.99901 | -90.02909 | 747 ft | 101 kts | 2° |
| 2026-05-08 01:12 | 30.00621 | -90.02920 | 618 ft | 105 kts | 1° |
| 2026-05-08 01:13 | 30.01346 | -90.02934 | 481 ft | 104 kts | 1° |
| 2026-05-08 01:13 | 30.02042 | -90.02938 | 353 ft | 96 kts | 1° |
| 2026-05-08 01:13 | 30.02722 | -90.02949 | 242 ft | 98 kts | 359° |
| 2026-05-08 01:13 | 30.03397 | -90.02967 | 96 ft | 94 kts | 1° |
| 2026-05-08 01:14 | 30.04015 | -90.02974 | 12 ft | 80 kts | 1° |
| 2026-05-08 01:14 | 30.04498 | -90.02981 | 11 ft | 54 kts | 359° |
| 2026-05-08 01:14 | 30.04751 | -90.02983 | 8 ft | 20 kts | 9° |
| 2026-05-08 01:14 | 30.04789 | -90.02897 | 9 ft | 8 kts | 112° |
| 2026-05-08 01:15 | 30.04720 | -90.02875 | 9 ft | 15 kts | 179° |
| 2026-05-08 01:15 | 30.04581 | -90.02872 | 10 ft | 23 kts | 180° |
| 2026-05-08 01:15 | 30.04398 | -90.02869 | 9 ft | 29 kts | 180° |
| 2026-05-08 01:15 | 30.04181 | -90.02866 | 10 ft | 28 kts | 180° |
| 2026-05-08 01:16 | 30.04022 | -90.02859 | 10 ft | 14 kts | 149° |
| 2026-05-08 01:16 | 30.04010 | -90.02739 | 10 ft | 17 kts | 92° |
| 2026-05-08 01:16 | 30.04018 | -90.02623 | 9 ft | 0 kts | 71° |